createdAt,value
2022-12-08T00:01:24.952Z,12.33
2022-12-08T00:03:51.992Z,12.73
2022-12-08T00:07:00.895Z,12.50
2022-12-08T00:09:45.476Z,11.90
2022-12-08T00:12:15.872Z,13.00
2022-12-08T00:14:46.152Z,15.43
2022-12-08T00:17:15.916Z,15.43
2022-12-08T00:19:43.569Z,16.77
2022-12-08T00:22:11.520Z,16.87
2022-12-08T00:24:39.827Z,15.90
2022-12-08T00:27:14.080Z,15.73
2022-12-08T00:29:42.849Z,15.10
2022-12-08T00:32:09.388Z,14.57
2022-12-08T00:34:35.894Z,16.07
2022-12-08T00:37:02.434Z,15.50
2022-12-08T00:39:28.888Z,15.73
2022-12-08T00:42:13.418Z,15.23
2022-12-08T00:44:41.723Z,14.97
2022-12-08T00:47:08.577Z,17.43
2022-12-08T00:49:35.054Z,17.17
2022-12-08T00:52:01.640Z,16.13
2022-12-08T00:54:28.114Z,16.03
2022-12-08T00:56:54.575Z,15.20
2022-12-08T00:59:21.066Z,16.77
2022-12-08T01:01:48.112Z,17.60
2022-12-08T01:04:20.063Z,18.77
2022-12-08T01:06:50.475Z,15.70
2022-12-08T01:09:18.255Z,14.73
2022-12-08T01:11:45.595Z,14.30
2022-12-08T01:14:12.830Z,14.60
2022-12-08T01:16:42.844Z,15.07
2022-12-08T01:19:14.686Z,15.50
2022-12-08T01:21:42.272Z,15.83
2022-12-08T01:24:15.326Z,14.93
2022-12-08T01:26:45.232Z,14.57
2022-12-08T01:29:12.413Z,15.10
2022-12-08T01:31:39.681Z,15.20
2022-12-08T01:34:07.828Z,14.67
2022-12-08T01:36:38.851Z,15.13
2022-12-08T01:39:13.139Z,15.63
2022-12-08T01:41:39.705Z,18.27
2022-12-08T01:45:36.959Z,17.47
2022-12-08T01:48:13.338Z,15.00
2022-12-08T01:50:42.296Z,15.87
2022-12-08T01:53:23.356Z,15.83
2022-12-08T01:56:16.450Z,15.33
2022-12-08T01:58:50.953Z,15.13
2022-12-08T02:01:17.530Z,15.50
2022-12-08T02:04:00.795Z,14.63
2022-12-08T02:06:37.002Z,14.97
2022-12-08T02:09:05.486Z,14.13
2022-12-08T02:11:31.949Z,14.03
2022-12-08T02:14:01.152Z,15.90
2022-12-08T02:18:50.454Z,17.10
2022-12-08T02:22:59.703Z,13.07
2022-12-08T02:26:09.012Z,15.47
2022-12-08T02:31:56.342Z,16.90
2022-12-08T02:34:54.138Z,14.83
2022-12-08T02:37:37.034Z,14.57
2022-12-08T02:40:25.618Z,14.10
2022-12-08T02:43:03.023Z,15.73
2022-12-08T02:46:02.628Z,14.43
2022-12-08T02:48:32.479Z,15.63
2022-12-08T02:50:59.009Z,15.63
2022-12-08T02:53:33.009Z,13.97
2022-12-08T02:58:50.567Z,13.93
2022-12-08T03:01:56.720Z,16.47
2022-12-08T03:07:27.874Z,14.23
2022-12-08T03:10:10.348Z,13.37
2022-12-08T03:12:56.185Z,12.70
2022-12-08T03:15:23.202Z,13.33
2022-12-08T03:17:57.173Z,13.57
2022-12-08T03:20:27.202Z,14.37
2022-12-08T03:22:59.496Z,13.50
2022-12-08T03:25:31.189Z,13.87
2022-12-08T03:27:58.942Z,13.13
2022-12-08T03:30:31.560Z,13.13
2022-12-08T03:33:15.643Z,14.80
2022-12-08T03:35:44.430Z,12.63
2022-12-08T03:38:15.570Z,14.00
2022-12-08T03:40:43.441Z,13.47
2022-12-08T03:43:10.052Z,12.77
2022-12-08T03:45:36.532Z,12.97
2022-12-08T03:48:03.220Z,13.87
2022-12-08T03:50:31.589Z,12.60
2022-12-08T03:52:58.056Z,13.13
2022-12-08T03:55:24.620Z,13.83
2022-12-08T03:57:51.080Z,12.93
2022-12-08T04:00:17.782Z,13.23
2022-12-08T04:02:44.278Z,13.37
2022-12-08T04:05:10.805Z,13.53
2022-12-08T04:07:37.362Z,14.10
2022-12-08T04:10:05.528Z,12.63
2022-12-08T04:12:34.311Z,13.50
2022-12-08T04:15:00.758Z,12.73
2022-12-08T04:17:28.705Z,13.13
2022-12-08T04:19:56.497Z,14.10
2022-12-08T04:22:22.957Z,13.27
2022-12-08T04:24:49.676Z,13.67
2022-12-08T04:27:18.318Z,12.30
2022-12-08T04:29:46.731Z,12.57
2022-12-08T04:32:13.198Z,13.43
2022-12-08T04:34:39.675Z,14.47
2022-12-08T04:37:06.239Z,13.47
2022-12-08T04:39:32.709Z,12.80
2022-12-08T04:41:59.168Z,14.07
2022-12-08T04:44:25.646Z,14.07
2022-12-08T04:46:52.132Z,12.77
2022-12-08T04:49:18.648Z,12.60
2022-12-08T04:51:45.090Z,11.90
2022-12-08T04:54:11.569Z,13.20
2022-12-08T04:56:38.020Z,12.57
2022-12-08T04:59:04.509Z,12.60
2022-12-08T05:01:31.112Z,13.33
2022-12-08T05:03:57.673Z,12.17
2022-12-08T05:06:24.138Z,12.60
2022-12-08T05:08:50.761Z,12.10
2022-12-08T05:11:17.629Z,11.67
2022-12-08T05:13:44.077Z,12.63
2022-12-08T05:16:15.101Z,13.90
2022-12-08T05:18:42.606Z,15.30
2022-12-08T05:21:09.781Z,14.73
2022-12-08T05:23:36.436Z,13.73
2022-12-08T05:26:03.067Z,14.27
2022-12-08T05:28:44.831Z,14.23
2022-12-08T05:31:16.639Z,15.37
2022-12-08T05:33:44.432Z,16.27
2022-12-08T05:36:17.337Z,15.30
2022-12-08T05:38:45.200Z,15.17
2022-12-08T05:41:16.887Z,15.30
2022-12-08T05:43:46.229Z,16.90
2022-12-08T05:46:13.706Z,15.37
2022-12-08T05:48:40.815Z,14.73
2022-12-08T05:51:19.555Z,14.43
2022-12-08T05:53:48.072Z,14.93
2022-12-08T05:56:15.201Z,14.57
2022-12-08T05:58:42.044Z,14.97
2022-12-08T06:01:31.168Z,14.40
2022-12-08T06:04:02.441Z,13.07
2022-12-08T06:06:30.669Z,14.50
2022-12-08T06:08:57.295Z,14.23
2022-12-08T06:11:29.494Z,13.60
2022-12-08T06:13:56.963Z,14.53
2022-12-08T06:16:28.286Z,13.53
2022-12-08T06:18:58.135Z,14.10
2022-12-08T06:21:24.682Z,14.27
2022-12-08T06:23:54.163Z,13.97
2022-12-08T06:26:21.865Z,13.13
2022-12-08T06:28:49.289Z,14.07
2022-12-08T06:31:23.372Z,14.23
2022-12-08T06:33:50.105Z,12.13
2022-12-08T06:36:20.271Z,13.63
2022-12-08T06:38:48.119Z,13.53
2022-12-08T06:41:14.705Z,14.27
2022-12-08T06:43:42.012Z,14.60
2022-12-08T06:46:13.091Z,13.37
2022-12-08T06:48:40.070Z,14.43
2022-12-08T06:51:13.472Z,14.90
2022-12-08T06:53:41.157Z,12.93
2022-12-08T06:56:08.824Z,15.10
2022-12-08T06:58:35.577Z,13.60
2022-12-08T07:01:08.423Z,13.87
2022-12-08T07:03:36.105Z,14.40
2022-12-08T07:06:04.445Z,13.60
2022-12-08T07:08:33.183Z,14.10
2022-12-08T07:11:05.288Z,13.57
2022-12-08T07:13:31.750Z,14.17
2022-12-08T07:15:58.263Z,13.67
2022-12-08T07:18:24.740Z,13.40
2022-12-08T07:20:51.194Z,11.97
2022-12-08T07:23:17.655Z,13.73
2022-12-08T07:25:44.134Z,12.17
2022-12-08T07:28:11.159Z,13.97
2022-12-08T07:30:39.018Z,12.80
2022-12-08T07:33:07.852Z,14.13
2022-12-08T07:35:35.305Z,13.60
2022-12-08T07:38:02.259Z,13.80
2022-12-08T07:40:28.719Z,14.93
2022-12-08T07:42:55.231Z,13.63
2022-12-08T07:45:24.596Z,14.63
2022-12-08T07:47:54.756Z,15.37
2022-12-08T07:50:21.215Z,14.93
2022-12-08T07:52:48.736Z,15.47
2022-12-08T07:55:15.230Z,14.00
2022-12-08T07:57:41.685Z,14.50
2022-12-08T08:00:10.496Z,13.90
2022-12-08T08:02:37.110Z,14.60
2022-12-08T08:05:04.633Z,14.27
2022-12-08T08:07:31.585Z,13.20
2022-12-08T08:09:58.105Z,13.87
2022-12-08T08:12:32.598Z,13.07
2022-12-08T08:15:04.002Z,13.20
2022-12-08T08:17:30.687Z,13.17
2022-12-08T08:19:57.272Z,13.80
2022-12-08T08:22:25.295Z,13.13
2022-12-08T08:24:52.361Z,14.00
2022-12-08T08:27:19.320Z,14.77
2022-12-08T08:29:45.851Z,14.63
2022-12-08T08:32:14.523Z,14.77
2022-12-08T08:34:40.988Z,15.20
2022-12-08T08:37:07.553Z,16.47
2022-12-08T08:39:34.110Z,16.63
2022-12-08T08:42:00.581Z,16.97
2022-12-08T08:44:27.180Z,16.00
2022-12-08T08:46:53.813Z,17.90
2022-12-08T08:49:20.656Z,16.57
2022-12-08T08:51:47.608Z,16.37
2022-12-08T08:54:15.548Z,17.17
2022-12-08T08:56:42.001Z,16.63
2022-12-08T08:59:10.194Z,17.60
2022-12-08T09:01:36.848Z,17.80
2022-12-08T09:04:03.465Z,17.17
2022-12-08T09:06:30.148Z,17.53
2022-12-08T09:08:56.698Z,15.10
2022-12-08T09:11:23.703Z,16.17
2022-12-08T09:13:51.528Z,15.90
2022-12-08T09:16:19.808Z,16.40
2022-12-08T09:18:48.522Z,17.13
2022-12-08T09:21:21.516Z,16.33
2022-12-08T09:23:50.083Z,18.20
2022-12-08T09:26:16.663Z,18.23
2022-12-08T09:28:45.669Z,16.10
2022-12-08T09:31:13.601Z,16.13
2022-12-08T09:33:40.592Z,15.63
2022-12-08T09:36:09.265Z,15.53
2022-12-08T09:38:37.040Z,16.27
2022-12-08T09:41:19.488Z,15.83
2022-12-08T09:45:03.162Z,15.77
2022-12-08T09:47:59.043Z,14.20
2022-12-08T09:50:38.805Z,15.50
2022-12-08T09:53:32.097Z,15.83
2022-12-08T09:56:14.517Z,15.37
2022-12-08T10:00:15.670Z,16.63
2022-12-08T10:02:46.862Z,16.30
2022-12-08T10:05:15.009Z,16.40
2022-12-08T10:08:18.054Z,15.73
2022-12-08T10:11:13.030Z,15.03
2022-12-08T10:15:30.035Z,16.23
2022-12-08T10:18:03.296Z,14.70
2022-12-08T10:20:43.163Z,16.20
2022-12-08T10:23:38.796Z,15.20
2022-12-08T10:26:12.039Z,16.60
2022-12-08T10:28:44.506Z,14.93
2022-12-08T10:31:21.603Z,14.07
2022-12-08T10:34:32.083Z,12.67
2022-12-08T10:37:00.036Z,13.27
2022-12-08T10:39:34.209Z,13.60
2022-12-08T10:42:21.133Z,12.97
2022-12-08T10:46:25.927Z,14.40
2022-12-08T10:49:12.632Z,13.20
2022-12-08T10:51:42.587Z,13.20
2022-12-08T10:54:31.704Z,13.07
2022-12-08T10:56:58.520Z,14.80
2022-12-08T10:59:25.156Z,14.13
2022-12-08T11:01:57.695Z,14.97
2022-12-08T11:04:36.255Z,14.53
2022-12-08T11:07:06.084Z,14.17
2022-12-08T11:09:57.462Z,14.03
2022-12-08T11:12:28.875Z,13.93
2022-12-08T11:15:05.268Z,11.87
2022-12-08T11:17:40.626Z,12.67
2022-12-08T11:20:24.985Z,11.53
2022-12-08T11:22:55.523Z,12.57
2022-12-08T11:25:27.032Z,11.50
2022-12-08T11:27:59.856Z,11.97
2022-12-08T11:30:39.194Z,12.23
2022-12-08T11:33:26.331Z,11.60
2022-12-08T11:36:08.712Z,11.67
2022-12-08T11:38:43.409Z,11.97
2022-12-08T11:41:23.740Z,12.27
2022-12-08T11:45:36.800Z,11.40
2022-12-08T11:48:34.912Z,10.57
2022-12-08T11:52:01.926Z,12.17
2022-12-08T11:54:52.012Z,11.10
2022-12-08T11:57:24.788Z,11.80
2022-12-08T11:59:58.362Z,11.37
2022-12-08T12:02:34.764Z,11.53
2022-12-08T12:05:12.902Z,11.90
2022-12-08T12:08:21.181Z,11.50
2022-12-08T12:12:12.457Z,11.50
2022-12-08T12:17:37.596Z,11.03
2022-12-08T12:21:38.489Z,11.03
2022-12-08T12:24:36.092Z,11.27
2022-12-08T12:27:40.619Z,11.20
2022-12-08T12:30:20.016Z,10.80
2022-12-08T12:33:00.978Z,11.90
2022-12-08T12:35:42.323Z,11.60
2022-12-08T12:39:16.362Z,13.10
2022-12-08T12:42:01.829Z,12.33
2022-12-08T12:44:39.972Z,13.43
2022-12-08T12:47:12.615Z,12.60
2022-12-08T12:49:51.838Z,12.83
2022-12-08T12:52:40.155Z,12.73
2022-12-08T12:55:26.180Z,13.50
2022-12-08T12:57:57.399Z,12.70
2022-12-08T13:00:27.349Z,12.33
2022-12-08T13:02:57.885Z,12.67
2022-12-08T13:05:32.449Z,11.40
2022-12-08T13:08:07.415Z,12.10
2022-12-08T13:10:39.825Z,12.17
2022-12-08T13:13:18.279Z,11.23
2022-12-08T13:15:55.531Z,10.53
2022-12-08T13:18:35.621Z,10.53
2022-12-08T13:21:19.247Z,11.23
2022-12-08T13:24:13.758Z,10.43
2022-12-08T13:27:52.108Z,10.97
2022-12-08T13:30:46.028Z,12.90
2022-12-08T13:33:30.831Z,12.30
2022-12-08T13:36:51.620Z,11.67
2022-12-08T13:39:29.131Z,12.53
2022-12-08T13:43:24.681Z,12.97
2022-12-08T13:50:36.594Z,12.50
2022-12-08T13:54:48.525Z,13.57
2022-12-08T13:57:36.758Z,12.90
2022-12-08T14:00:15.553Z,12.63
2022-12-08T14:02:48.011Z,13.67
2022-12-08T14:05:34.928Z,13.63
2022-12-08T14:08:58.873Z,13.43
2022-12-08T14:11:36.424Z,13.47
2022-12-08T14:14:12.104Z,13.30
2022-12-08T14:16:41.774Z,11.57
2022-12-08T14:19:28.185Z,12.37
2022-12-08T14:22:59.032Z,13.13
2022-12-08T14:25:28.357Z,13.83
2022-12-08T14:28:03.840Z,13.07
2022-12-08T14:30:36.384Z,13.83
2022-12-08T14:33:04.480Z,13.73
2022-12-08T14:35:37.469Z,13.33
2022-12-08T14:38:17.604Z,13.93
2022-12-08T14:40:48.430Z,13.27
2022-12-08T14:43:18.961Z,13.23
2022-12-08T14:45:52.522Z,14.37
2022-12-08T14:48:59.899Z,13.63
2022-12-08T14:51:33.516Z,13.47
2022-12-08T14:54:15.938Z,13.97
2022-12-08T14:56:54.643Z,12.80
2022-12-08T14:59:37.388Z,13.50
2022-12-08T15:02:45.021Z,13.97
2022-12-08T15:05:20.830Z,14.27
2022-12-08T15:07:53.110Z,14.67
2022-12-08T15:10:28.749Z,12.90
2022-12-08T15:15:15.719Z,13.77
2022-12-08T15:17:50.799Z,13.30
2022-12-08T15:20:54.821Z,13.23
2022-12-08T15:23:31.658Z,14.23
2022-12-08T15:25:59.149Z,13.40
2022-12-08T15:28:30.242Z,13.43
2022-12-08T15:30:58.102Z,13.83
2022-12-08T15:33:24.655Z,13.30
2022-12-08T15:35:52.161Z,13.43
2022-12-08T15:38:29.143Z,13.73
2022-12-08T15:40:57.960Z,13.63
2022-12-08T15:43:24.444Z,13.80
2022-12-08T15:45:59.592Z,14.43
2022-12-08T15:48:29.173Z,13.70
2022-12-08T15:50:56.963Z,13.30
2022-12-08T15:53:23.455Z,14.33
2022-12-08T15:56:18.853Z,14.90
2022-12-08T15:58:54.808Z,13.90
2022-12-08T16:01:25.065Z,13.37
2022-12-08T16:09:48.851Z,13.13
2022-12-08T16:15:57.090Z,16.33
2022-12-08T16:18:31.371Z,15.50
2022-12-08T16:21:35.523Z,16.47
2022-12-08T16:24:31.114Z,15.27
2022-12-08T16:29:58.403Z,13.73
2022-12-08T16:32:28.712Z,14.90
2022-12-08T16:34:55.226Z,14.80
2022-12-08T16:37:25.588Z,13.60
2022-12-08T16:39:55.108Z,14.50
2022-12-08T16:42:39.443Z,14.97
2022-12-08T16:45:22.615Z,14.07
2022-12-08T16:47:55.785Z,13.20
2022-12-08T16:50:32.363Z,14.47
2022-12-08T16:53:06.683Z,12.70
2022-12-08T16:55:34.311Z,13.50
2022-12-08T16:58:02.773Z,14.07
2022-12-08T17:00:35.854Z,14.53
2022-12-08T17:03:04.189Z,15.17
2022-12-08T17:05:30.937Z,13.87
2022-12-08T17:07:58.478Z,14.83
2022-12-08T17:10:29.197Z,14.53
2022-12-08T17:12:55.987Z,13.27
2022-12-08T17:15:25.522Z,14.17
2022-12-08T17:17:53.230Z,13.53
2022-12-08T17:20:25.628Z,13.73
2022-12-08T17:22:57.346Z,14.23
2022-12-08T17:25:25.646Z,14.90
2022-12-08T17:27:52.119Z,15.53
2022-12-08T17:30:19.476Z,15.20
2022-12-08T17:32:48.666Z,16.50
2022-12-08T17:35:15.124Z,15.73
2022-12-08T17:37:43.189Z,16.70
2022-12-08T17:40:10.289Z,16.70
2022-12-08T17:42:37.878Z,17.67
2022-12-08T17:45:06.984Z,16.80
2022-12-08T17:47:33.942Z,17.50
2022-12-08T17:50:00.413Z,17.77
2022-12-08T17:52:26.856Z,16.70
2022-12-08T17:54:53.362Z,19.17
2022-12-08T17:57:19.839Z,17.87
2022-12-08T17:59:46.342Z,15.03
2022-12-08T18:02:12.848Z,14.60
2022-12-08T18:04:39.341Z,15.57
2022-12-08T18:07:05.944Z,15.53
2022-12-08T18:09:32.940Z,14.33
2022-12-08T18:11:59.780Z,14.53
2022-12-08T18:14:26.677Z,13.43
2022-12-08T18:16:53.378Z,13.37
2022-12-08T18:19:19.959Z,13.73
2022-12-08T18:21:46.409Z,13.23
2022-12-08T18:24:21.343Z,15.13
2022-12-08T18:26:49.841Z,12.87
2022-12-08T18:29:16.346Z,13.27
2022-12-08T18:31:42.920Z,13.63
2022-12-08T18:34:09.370Z,13.70
2022-12-08T18:36:35.844Z,13.40
2022-12-08T18:39:08.776Z,13.03
2022-12-08T18:41:37.113Z,13.40
2022-12-08T18:44:03.872Z,13.17
2022-12-08T18:46:30.676Z,13.07
2022-12-08T18:48:58.580Z,13.83
2022-12-08T18:51:25.090Z,12.80
2022-12-08T18:53:52.448Z,13.13
2022-12-08T18:56:31.740Z,14.07
2022-12-08T18:59:04.129Z,12.80
2022-12-08T19:01:36.546Z,12.83
2022-12-08T19:07:04.609Z,13.37
2022-12-08T19:09:31.074Z,13.20
2022-12-08T19:11:57.658Z,12.73
2022-12-08T19:14:28.097Z,13.00
2022-12-08T19:16:56.088Z,13.87
2022-12-08T19:19:23.310Z,13.60
2022-12-08T19:21:50.475Z,14.20
2022-12-08T19:24:17.121Z,13.73
2022-12-08T19:26:44.077Z,12.77
2022-12-08T19:29:11.256Z,12.93
2022-12-08T19:31:39.221Z,12.43
2022-12-08T19:34:06.074Z,12.13
2022-12-08T19:36:34.739Z,12.27
2022-12-08T19:39:22.807Z,13.67
2022-12-08T19:42:08.271Z,13.53
2022-12-08T19:44:52.717Z,11.83
2022-12-08T19:47:26.894Z,12.97
2022-12-08T19:50:35.319Z,12.43
2022-12-08T19:53:12.158Z,12.47
2022-12-08T19:55:39.462Z,13.00
2022-12-08T19:58:06.945Z,12.03
2022-12-08T20:00:35.420Z,11.93
2022-12-08T20:03:02.981Z,13.33
2022-12-08T20:05:31.903Z,15.47
2022-12-08T20:07:58.899Z,15.47
2022-12-08T20:10:29.411Z,14.43
2022-12-08T20:13:40.092Z,13.37
2022-12-08T20:16:07.564Z,14.43
2022-12-08T20:18:39.317Z,16.17
2022-12-08T20:21:06.329Z,14.07
2022-12-08T20:23:33.646Z,13.97
2022-12-08T20:26:09.097Z,11.70
2022-12-08T20:28:36.100Z,12.33
2022-12-08T20:31:03.651Z,12.90
2022-12-08T20:33:30.463Z,12.23
2022-12-08T20:36:03.342Z,13.20
2022-12-08T20:38:30.130Z,11.50
2022-12-08T20:40:58.312Z,11.53
2022-12-08T20:43:25.687Z,11.70
2022-12-08T20:45:52.150Z,12.40
2022-12-08T20:48:23.498Z,12.80
2022-12-08T20:50:51.390Z,11.17
2022-12-08T20:53:17.922Z,11.63
2022-12-08T20:55:44.569Z,12.53
2022-12-08T20:58:11.494Z,12.40
2022-12-08T21:00:37.960Z,12.80
2022-12-08T21:03:04.798Z,12.53
2022-12-08T21:05:31.665Z,12.23
2022-12-08T21:07:58.579Z,12.20
2022-12-08T21:10:25.168Z,13.33
2022-12-08T21:12:51.627Z,13.57
2022-12-08T21:15:18.306Z,13.37
2022-12-08T21:17:44.898Z,13.57
2022-12-08T21:20:11.990Z,14.03
2022-12-08T21:22:39.339Z,14.23
2022-12-08T21:25:07.374Z,12.93
2022-12-08T21:27:34.027Z,13.80
2022-12-08T21:30:00.730Z,14.87
2022-12-08T21:32:30.311Z,13.90
2022-12-08T21:34:57.346Z,13.20
2022-12-08T21:37:24.201Z,12.27
2022-12-08T21:39:53.153Z,12.33
2022-12-08T21:42:38.061Z,11.87
2022-12-08T21:45:05.220Z,14.83
2022-12-08T21:47:34.538Z,14.10
2022-12-08T21:50:01.270Z,12.53
2022-12-08T21:52:27.889Z,11.70
2022-12-08T21:54:54.543Z,12.00
2022-12-08T21:57:21.013Z,11.73
2022-12-08T21:59:47.521Z,12.07
2022-12-08T22:02:22.219Z,10.57
2022-12-08T22:04:49.828Z,12.43
2022-12-08T22:07:17.046Z,10.97
2022-12-08T22:09:43.713Z,12.67
2022-12-08T22:12:13.192Z,13.33
2022-12-08T22:14:40.052Z,11.77
2022-12-08T22:17:07.505Z,12.10
2022-12-08T22:19:34.488Z,12.23
2022-12-08T22:22:01.500Z,12.07
2022-12-08T22:24:30.524Z,12.87
2022-12-08T22:26:57.164Z,12.27
2022-12-08T22:29:23.751Z,13.43
2022-12-08T22:31:50.386Z,11.40
2022-12-08T22:34:16.862Z,11.30
2022-12-08T22:36:43.645Z,11.53
2022-12-08T22:39:11.459Z,11.83
2022-12-08T22:41:37.927Z,11.73
2022-12-08T22:44:08.215Z,12.67
2022-12-08T22:46:35.014Z,11.90
2022-12-08T22:49:01.999Z,11.13
2022-12-08T22:51:28.491Z,12.43
2022-12-08T22:53:55.054Z,11.50
2022-12-08T22:56:21.544Z,12.03
2022-12-08T22:58:48.287Z,11.77
2022-12-08T23:01:31.478Z,14.17
2022-12-08T23:04:00.018Z,12.93
2022-12-08T23:06:29.252Z,11.50
2022-12-08T23:08:56.631Z,11.30
2022-12-08T23:11:27.700Z,13.27
2022-12-08T23:13:55.421Z,12.03
2022-12-08T23:16:22.497Z,11.73
2022-12-08T23:18:49.056Z,11.67
2022-12-08T23:21:19.884Z,10.77
2022-12-08T23:23:46.952Z,11.10
2022-12-08T23:26:26.258Z,12.70
2022-12-08T23:28:53.518Z,11.00
2022-12-08T23:31:20.694Z,11.10
2022-12-08T23:33:47.862Z,11.33
2022-12-08T23:36:16.590Z,12.03
2022-12-08T23:38:43.804Z,12.63
2022-12-08T23:41:13.340Z,12.33
2022-12-08T23:43:49.520Z,12.40
2022-12-08T23:46:21.345Z,12.53
2022-12-08T23:48:49.753Z,11.27
2022-12-08T23:51:16.822Z,11.97
2022-12-08T23:53:44.537Z,11.53
2022-12-08T23:56:18.853Z,10.37
2022-12-08T23:58:45.997Z,10.23
